createdAt,value
2017-06-11T00:02:21.451Z,18.00
2017-06-11T00:04:49.187Z,18.00
2017-06-11T00:07:16.744Z,17.90
2017-06-11T00:18:30.770Z,17.40
2017-06-11T00:20:58.387Z,17.30
2017-06-11T00:23:26.075Z,17.20
2017-06-11T00:25:53.769Z,17.10
2017-06-11T00:28:21.527Z,17.00
2017-06-11T00:30:49.293Z,17.00
2017-06-11T00:33:17.212Z,16.90
2017-06-11T00:35:45.887Z,16.80
2017-06-11T00:38:13.582Z,16.80
2017-06-11T00:40:41.545Z,16.80
2017-06-11T00:43:09.124Z,16.80
2017-06-11T00:45:36.753Z,16.90
2017-06-11T00:48:04.482Z,17.00
2017-06-11T00:50:32.133Z,17.00
2017-06-11T00:53:00.511Z,17.10
2017-06-11T00:55:28.177Z,17.10
2017-06-11T00:57:56.551Z,17.20
2017-06-11T01:00:24.268Z,17.20
2017-06-11T01:02:52.134Z,17.30
2017-06-11T01:05:19.742Z,17.30
2017-06-11T01:07:47.594Z,17.40
2017-06-11T01:10:15.364Z,17.30
2017-06-11T01:12:43.792Z,17.30
2017-06-11T01:15:11.436Z,17.30
2017-06-11T01:17:39.224Z,17.10
2017-06-11T01:20:06.823Z,17.10
2017-06-11T01:22:35.266Z,16.90
2017-06-11T01:25:02.968Z,16.90
2017-06-11T01:27:31.338Z,16.70
2017-06-11T01:29:58.966Z,16.70
2017-06-11T01:32:26.893Z,16.60
2017-06-11T01:34:55.255Z,16.50
2017-06-11T01:37:24.686Z,16.40
2017-06-11T01:39:52.333Z,16.40
2017-06-11T01:42:20.699Z,16.30
2017-06-11T01:44:49.111Z,16.20
2017-06-11T01:47:16.928Z,16.20
2017-06-11T01:49:44.543Z,16.10
2017-06-11T01:52:12.185Z,16.10
2017-06-11T01:54:40.037Z,16.10
2017-06-11T01:57:08.441Z,16.20
2017-06-11T01:59:36.126Z,16.20
2017-06-11T02:02:03.775Z,16.20
2017-06-11T02:04:31.380Z,16.20
2017-06-11T02:06:59.060Z,16.20
2017-06-11T02:09:27.504Z,16.10
2017-06-11T02:11:55.223Z,16.10
2017-06-11T02:14:22.871Z,16.00
2017-06-11T02:16:51.462Z,16.00
2017-06-11T02:19:19.155Z,16.00
2017-06-11T02:21:46.821Z,16.00
2017-06-11T02:24:14.641Z,16.00
2017-06-11T02:26:42.270Z,16.00
2017-06-11T02:29:09.945Z,16.00
2017-06-11T02:31:38.450Z,16.00
2017-06-11T02:34:06.120Z,16.00
2017-06-11T02:36:33.714Z,16.00
2017-06-11T02:39:01.380Z,16.00
2017-06-11T02:41:29.044Z,16.00
2017-06-11T02:43:56.626Z,16.00
2017-06-11T02:46:25.041Z,15.90
2017-06-11T02:48:52.651Z,15.80
2017-06-11T02:51:20.296Z,15.80
2017-06-11T02:53:48.060Z,15.80
2017-06-11T02:56:15.659Z,15.70
2017-06-11T02:58:44.076Z,15.60
2017-06-11T03:01:11.798Z,15.50
2017-06-11T03:03:40.197Z,15.50
2017-06-11T03:06:08.644Z,15.40
2017-06-11T03:08:36.608Z,15.50
2017-06-11T03:11:04.209Z,15.40
2017-06-11T03:13:31.835Z,15.30
2017-06-11T03:15:59.727Z,15.30
2017-06-11T03:18:28.124Z,15.20
2017-06-11T03:20:55.743Z,15.20
2017-06-11T03:23:23.559Z,15.20
2017-06-11T03:25:51.180Z,15.20
2017-06-11T03:28:19.571Z,15.20
2017-06-11T03:30:48.272Z,15.20
2017-06-11T03:33:15.869Z,15.20
2017-06-11T03:35:43.516Z,15.20
2017-06-11T03:38:11.275Z,15.20
2017-06-11T03:40:38.962Z,15.20
2017-06-11T03:43:06.598Z,15.20
2017-06-11T03:45:34.373Z,15.20
2017-06-11T03:48:01.968Z,15.10
2017-06-11T03:50:29.534Z,15.10
2017-06-11T03:52:57.796Z,15.20
2017-06-11T03:55:25.365Z,15.20
2017-06-11T03:57:52.920Z,15.30
2017-06-11T04:00:20.664Z,15.30
2017-06-11T04:02:48.229Z,15.30
2017-06-11T04:05:15.792Z,15.30
2017-06-11T04:07:43.511Z,15.30
2017-06-11T04:10:11.072Z,15.40
2017-06-11T04:12:38.633Z,15.40
2017-06-11T04:15:06.356Z,15.40
2017-06-11T04:17:33.916Z,15.40
2017-06-11T04:20:01.473Z,15.50
2017-06-11T04:22:29.998Z,15.60
2017-06-11T04:24:57.559Z,15.50
2017-06-11T04:27:25.110Z,15.60
2017-06-11T04:29:53.053Z,15.70
2017-06-11T04:32:20.612Z,15.70
2017-06-11T04:34:48.172Z,15.70
2017-06-11T04:37:16.741Z,15.80
2017-06-11T04:39:44.322Z,15.80
2017-06-11T04:42:11.891Z,15.90
2017-06-11T04:44:40.244Z,16.00
2017-06-11T04:47:07.805Z,15.90
2017-06-11T04:49:35.371Z,16.00
2017-06-11T04:52:02.952Z,16.10
2017-06-11T04:54:30.540Z,16.10
2017-06-11T04:56:58.085Z,16.20
2017-06-11T04:59:25.905Z,16.20
2017-06-11T05:01:53.459Z,16.30
2017-06-11T05:04:21.060Z,16.30
2017-06-11T05:06:48.892Z,16.40
2017-06-11T05:09:16.471Z,16.50
2017-06-11T05:11:44.793Z,16.60
2017-06-11T05:14:12.703Z,16.60
2017-06-11T05:16:40.296Z,16.80
2017-06-11T05:19:07.859Z,17.00
2017-06-11T05:21:35.711Z,17.20
2017-06-11T05:24:03.269Z,17.50
2017-06-11T05:26:30.825Z,17.70
2017-06-11T05:28:59.168Z,18.20
2017-06-11T05:31:26.727Z,18.20
2017-06-11T05:33:54.364Z,18.20
2017-06-11T05:36:22.093Z,18.20
2017-06-11T05:38:49.741Z,18.10
2017-06-11T05:41:17.288Z,18.10
2017-06-11T05:43:45.628Z,18.00
2017-06-11T05:46:13.272Z,18.00
2017-06-11T05:48:40.916Z,18.00
2017-06-11T05:51:08.747Z,18.00
2017-06-11T05:53:36.302Z,18.00
2017-06-11T05:56:03.861Z,18.00
2017-06-11T05:58:31.448Z,18.00
2017-06-11T06:00:59.018Z,18.10
2017-06-11T06:03:26.572Z,18.20
2017-06-11T06:05:54.699Z,18.30
2017-06-11T06:08:22.255Z,18.40
2017-06-11T06:10:49.843Z,18.40
2017-06-11T06:13:17.793Z,18.60
2017-06-11T06:15:45.358Z,18.60
2017-06-11T06:18:12.941Z,18.80
2017-06-11T06:20:40.614Z,18.90
2017-06-11T06:23:08.192Z,19.00
2017-06-11T06:25:35.743Z,19.00
2017-06-11T06:28:03.440Z,19.00
2017-06-11T06:30:31.032Z,19.10
2017-06-11T06:32:58.656Z,19.20
2017-06-11T06:35:26.380Z,19.30
2017-06-11T06:37:53.957Z,19.40
2017-06-11T06:40:21.592Z,19.40
2017-06-11T06:42:49.286Z,19.50
2017-06-11T06:45:16.858Z,19.60
2017-06-11T06:47:44.412Z,19.60
2017-06-11T06:50:12.137Z,19.70
2017-06-11T06:52:39.705Z,19.70
2017-06-11T06:55:07.263Z,19.80
2017-06-11T06:57:35.012Z,19.80
2017-06-11T07:00:02.583Z,19.90
2017-06-11T07:02:30.156Z,20.00
2017-06-11T07:04:57.893Z,20.00
2017-06-11T07:07:25.459Z,20.10
2017-06-11T07:09:53.023Z,20.20
2017-06-11T07:12:21.064Z,20.20
2017-06-11T07:14:49.398Z,20.50
2017-06-11T07:17:16.981Z,20.50
2017-06-11T07:19:44.722Z,20.60
2017-06-11T07:22:12.283Z,20.80
2017-06-11T07:24:40.047Z,20.80
2017-06-11T07:27:07.796Z,20.90
2017-06-11T07:29:35.393Z,21.10
2017-06-11T07:32:02.995Z,21.20
2017-06-11T07:34:30.771Z,21.30
2017-06-11T07:36:58.354Z,21.40
2017-06-11T07:39:25.950Z,21.30
2017-06-11T07:41:54.337Z,21.40
2017-06-11T07:44:22.814Z,21.50
2017-06-11T07:46:50.493Z,21.50
2017-06-11T07:49:18.635Z,21.60
2017-06-11T07:51:46.206Z,21.70
2017-06-11T07:54:13.776Z,21.80
2017-06-11T07:56:41.737Z,21.90
2017-06-11T07:59:10.060Z,22.10
2017-06-11T08:01:37.621Z,22.00
2017-06-11T08:04:05.422Z,22.20
2017-06-11T08:06:33.023Z,22.30
2017-06-11T08:09:00.592Z,22.30
2017-06-11T08:11:28.199Z,22.40
2017-06-11T08:13:55.748Z,22.50
2017-06-11T08:16:23.321Z,22.60
2017-06-11T08:18:51.029Z,22.70
2017-06-11T08:21:18.595Z,22.70
2017-06-11T08:23:46.172Z,22.70
2017-06-11T08:26:13.998Z,22.80
2017-06-11T08:28:42.404Z,22.70
2017-06-11T08:31:09.960Z,22.80
2017-06-11T08:33:37.820Z,22.70
2017-06-11T08:36:05.393Z,22.80
2017-06-11T08:38:32.950Z,22.80
2017-06-11T08:41:00.868Z,22.80
2017-06-11T08:43:28.419Z,22.90
2017-06-11T08:45:56.014Z,22.90
2017-06-11T08:48:23.608Z,22.90
2017-06-11T08:50:51.179Z,23.00
2017-06-11T08:53:18.737Z,23.10
2017-06-11T08:55:46.329Z,23.10
2017-06-11T08:58:13.885Z,23.20
2017-06-11T09:00:41.463Z,23.10
2017-06-11T09:03:09.911Z,23.30
2017-06-11T09:05:37.472Z,23.20
2017-06-11T09:08:05.054Z,23.20
2017-06-11T09:10:33.550Z,23.30
2017-06-11T09:13:01.878Z,23.30
2017-06-11T09:15:29.431Z,23.30
2017-06-11T09:17:57.159Z,23.30
2017-06-11T09:20:25.027Z,23.40
2017-06-11T09:22:53.424Z,23.60
2017-06-11T09:25:21.251Z,23.50
2017-06-11T09:27:48.815Z,23.50
2017-06-11T09:30:17.149Z,23.60
2017-06-11T09:32:44.839Z,23.50
2017-06-11T09:35:12.400Z,23.60
2017-06-11T09:37:40.721Z,23.70
2017-06-11T09:40:08.529Z,23.60
2017-06-11T09:42:36.079Z,23.70
2017-06-11T09:45:03.664Z,23.80
2017-06-11T09:47:32.385Z,23.80
2017-06-11T09:50:00.161Z,23.70
2017-06-11T09:52:27.725Z,23.80
2017-06-11T09:54:55.521Z,23.80
2017-06-11T09:57:23.082Z,23.90
2017-06-11T09:59:50.644Z,23.90
2017-06-11T10:02:18.400Z,23.90
2017-06-11T10:04:45.957Z,24.00
2017-06-11T10:07:13.509Z,24.10
2017-06-11T10:09:41.475Z,24.20
2017-06-11T10:12:09.039Z,24.40
2017-06-11T10:14:36.612Z,24.50
2017-06-11T10:17:04.501Z,24.60
2017-06-11T10:19:32.851Z,24.70
2017-06-11T10:22:00.411Z,24.70
2017-06-11T10:24:28.137Z,24.70
2017-06-11T10:26:55.701Z,24.80
2017-06-11T10:29:23.265Z,24.90
2017-06-11T10:31:51.028Z,25.00
2017-06-11T10:34:18.580Z,25.10
2017-06-11T10:36:46.128Z,25.20
2017-06-11T10:39:13.725Z,25.30
2017-06-11T10:41:41.273Z,25.40
2017-06-11T10:44:08.866Z,25.40
2017-06-11T10:46:36.733Z,25.40
2017-06-11T10:49:04.285Z,25.40
2017-06-11T10:51:31.858Z,25.40
2017-06-11T10:54:00.425Z,25.50
2017-06-11T10:56:28.011Z,25.50
2017-06-11T10:58:55.580Z,25.60
2017-06-11T11:01:23.493Z,25.60
2017-06-11T11:03:51.084Z,25.70
2017-06-11T11:06:20.032Z,26.00
2017-06-11T11:08:47.701Z,26.00
2017-06-11T11:11:15.454Z,26.10
2017-06-11T11:13:43.099Z,26.20
2017-06-11T11:16:10.874Z,26.30
2017-06-11T11:18:38.595Z,26.40
2017-06-11T11:21:06.268Z,26.50
2017-06-11T11:23:34.166Z,26.50
2017-06-11T11:26:01.742Z,26.50
2017-06-11T11:28:29.335Z,26.50
2017-06-11T11:30:56.951Z,26.40
2017-06-11T11:33:24.504Z,26.40
2017-06-11T11:35:52.056Z,26.50
2017-06-11T11:38:19.976Z,26.50
2017-06-11T11:40:48.313Z,26.70
2017-06-11T11:43:15.868Z,26.80
2017-06-11T11:45:43.468Z,26.90
2017-06-11T11:48:11.011Z,26.90
2017-06-11T11:50:38.566Z,27.00
2017-06-11T11:53:06.296Z,27.20
2017-06-11T11:55:33.848Z,27.20
2017-06-11T11:58:01.399Z,27.20
2017-06-11T12:00:29.002Z,27.20
2017-06-11T12:02:56.549Z,27.10
2017-06-11T12:05:24.111Z,27.00
2017-06-11T12:07:51.831Z,27.00
2017-06-11T12:10:20.160Z,26.90
2017-06-11T12:12:47.717Z,26.90
2017-06-11T12:15:15.417Z,26.80
2017-06-11T12:17:43.756Z,26.70
2017-06-11T12:20:11.303Z,26.70
2017-06-11T12:22:39.507Z,26.60
2017-06-11T12:25:07.052Z,26.70
2017-06-11T12:27:34.648Z,26.70
2017-06-11T12:30:03.103Z,26.70
2017-06-11T12:32:30.661Z,26.60
2017-06-11T12:34:58.212Z,26.70
2017-06-11T12:37:26.683Z,26.80
2017-06-11T12:39:54.230Z,26.80
2017-06-11T12:42:21.779Z,26.80
2017-06-11T12:44:49.389Z,26.70
2017-06-11T12:47:16.943Z,26.70
2017-06-11T12:49:44.495Z,26.70
2017-06-11T12:52:12.275Z,26.70
2017-06-11T12:54:39.823Z,26.90
2017-06-11T12:57:07.388Z,27.20
2017-06-11T12:59:35.064Z,27.40
2017-06-11T13:02:03.406Z,27.80
2017-06-11T13:04:30.956Z,27.80
2017-06-11T13:06:58.629Z,28.10
2017-06-11T13:09:26.184Z,28.20
2017-06-11T13:11:53.752Z,28.40
2017-06-11T13:14:21.513Z,28.50
2017-06-11T13:16:49.060Z,28.50
2017-06-11T13:19:16.614Z,28.50
2017-06-11T13:21:44.523Z,28.60
2017-06-11T13:24:12.099Z,28.60
2017-06-11T13:26:40.417Z,28.50
2017-06-11T13:29:08.020Z,28.50
2017-06-11T13:31:35.584Z,28.50
2017-06-11T13:34:03.174Z,28.70
2017-06-11T13:36:31.001Z,28.80
2017-06-11T13:38:58.630Z,28.90
2017-06-11T13:41:26.236Z,29.00
2017-06-11T13:43:54.815Z,29.30
2017-06-11T13:46:22.368Z,29.30
2017-06-11T13:48:49.927Z,29.20
2017-06-11T13:51:17.530Z,29.10
2017-06-11T13:53:45.080Z,29.10
2017-06-11T13:56:12.640Z,29.20
2017-06-11T13:58:40.568Z,29.20
2017-06-11T14:01:08.128Z,29.30
2017-06-11T14:03:35.680Z,29.20
2017-06-11T14:06:03.392Z,29.20
2017-06-11T14:08:30.947Z,29.10
2017-06-11T14:10:58.495Z,28.90
2017-06-11T14:13:27.000Z,28.70
2017-06-11T14:15:54.555Z,28.70
2017-06-11T14:18:22.114Z,28.80
2017-06-11T14:20:49.727Z,28.70
2017-06-11T14:23:17.279Z,28.70
2017-06-11T14:25:44.820Z,28.70
2017-06-11T14:28:17.341Z,28.60
2017-06-11T14:30:45.660Z,28.50
2017-06-11T14:35:38.138Z,28.50
2017-06-11T14:38:05.699Z,28.60
2017-06-11T14:40:33.252Z,28.60
2017-06-11T14:43:00.864Z,28.70
2017-06-11T14:45:29.208Z,28.60
2017-06-11T14:47:56.764Z,28.60
2017-06-11T14:50:24.459Z,28.50
2017-06-11T14:52:52.000Z,28.30
2017-06-11T14:55:19.552Z,28.40
2017-06-11T14:57:47.440Z,28.60
2017-06-11T15:00:15.034Z,28.70
2017-06-11T15:02:42.732Z,28.70
2017-06-11T15:05:10.720Z,28.60
2017-06-11T15:07:38.429Z,28.60
2017-06-11T15:10:06.028Z,28.50
2017-06-11T15:12:33.788Z,28.50
2017-06-11T15:15:01.384Z,28.50
2017-06-11T15:17:29.808Z,28.30
2017-06-11T15:19:57.492Z,28.30
2017-06-11T15:22:25.047Z,28.30
2017-06-11T15:24:52.595Z,28.30
2017-06-11T15:27:20.378Z,28.30
2017-06-11T15:29:47.930Z,28.20
2017-06-11T15:32:15.484Z,28.20
2017-06-11T15:34:43.257Z,28.10
2017-06-11T15:37:10.799Z,27.90
2017-06-11T15:39:38.353Z,27.80
2017-06-11T15:42:05.956Z,27.60
2017-06-11T15:44:33.572Z,27.60
2017-06-11T15:47:01.123Z,27.60
2017-06-11T15:49:28.744Z,27.50
2017-06-11T15:51:57.064Z,27.10
2017-06-11T15:54:24.621Z,27.10
2017-06-11T15:56:52.354Z,27.10
2017-06-11T15:59:19.909Z,26.90
2017-06-11T16:01:48.217Z,26.80
2017-06-11T16:04:15.922Z,26.80
2017-06-11T16:06:43.478Z,26.80
2017-06-11T16:09:11.035Z,26.90
2017-06-11T16:11:39.004Z,26.90
2017-06-11T16:14:06.584Z,26.90
2017-06-11T16:16:34.140Z,26.90
2017-06-11T16:19:02.913Z,26.80
2017-06-11T16:21:30.880Z,26.80
2017-06-11T16:23:59.266Z,26.70
2017-06-11T16:26:27.034Z,26.70
2017-06-11T16:28:54.599Z,26.70
2017-06-11T16:31:23.025Z,26.70
2017-06-11T16:33:50.723Z,26.70
2017-06-11T16:36:18.320Z,26.70
2017-06-11T16:38:46.012Z,26.70
2017-06-11T16:41:13.974Z,26.80
2017-06-11T16:43:41.660Z,26.70
2017-06-11T16:46:09.507Z,26.80
2017-06-11T16:48:37.448Z,26.90
2017-06-11T16:51:05.141Z,26.90
2017-06-11T16:53:32.736Z,26.80
2017-06-11T16:56:00.468Z,26.80
2017-06-11T16:58:28.149Z,26.70
2017-06-11T17:00:55.762Z,26.60
2017-06-11T17:03:23.540Z,26.50
2017-06-11T17:05:51.101Z,26.30
2017-06-11T17:08:18.656Z,26.00
2017-06-11T17:10:46.260Z,25.90
2017-06-11T17:13:13.832Z,25.70
2017-06-11T17:15:41.388Z,25.50
2017-06-11T17:18:09.393Z,25.30
2017-06-11T17:20:36.960Z,25.10
2017-06-11T17:23:04.553Z,24.80
2017-06-11T17:25:32.341Z,24.70
2017-06-11T17:27:59.903Z,24.50
2017-06-11T17:30:27.511Z,24.30
2017-06-11T17:32:57.192Z,24.20
2017-06-11T17:35:24.763Z,24.00
2017-06-11T17:37:52.348Z,23.80
2017-06-11T17:40:20.372Z,23.50
2017-06-11T17:42:47.950Z,23.30
2017-06-11T17:45:15.518Z,23.10
2017-06-11T17:47:43.154Z,22.80
2017-06-11T17:50:10.736Z,22.60
2017-06-11T17:52:38.306Z,22.50
2017-06-11T17:55:07.150Z,22.40
2017-06-11T17:57:34.743Z,22.30
2017-06-11T18:00:02.393Z,22.20
2017-06-11T18:02:30.157Z,22.20
2017-06-11T18:04:57.748Z,22.20
2017-06-11T18:07:25.439Z,22.20
2017-06-11T18:09:53.360Z,22.10
2017-06-11T18:12:20.984Z,22.10
2017-06-11T18:14:49.333Z,21.90
2017-06-11T18:17:17.097Z,21.90
2017-06-11T18:19:44.853Z,21.80
2017-06-11T18:22:12.477Z,21.80
2017-06-11T18:24:40.195Z,21.70
2017-06-11T18:27:07.756Z,21.60
2017-06-11T18:29:35.370Z,21.60
2017-06-11T18:32:03.224Z,21.50
2017-06-11T18:34:30.821Z,21.40
2017-06-11T18:36:58.389Z,21.30
2017-06-11T18:39:26.341Z,21.20
2017-06-11T18:41:57.369Z,21.20
2017-06-11T18:44:25.007Z,21.10
2017-06-11T18:46:52.909Z,21.10
2017-06-11T18:49:20.532Z,21.00
2017-06-11T18:51:48.253Z,20.90
2017-06-11T18:54:17.264Z,20.80
2017-06-11T18:56:45.713Z,20.70
2017-06-11T18:59:13.499Z,20.70
2017-06-11T19:01:41.269Z,20.70
2017-06-11T19:04:08.835Z,20.60
2017-06-11T19:06:37.181Z,20.70
2017-06-11T19:09:04.831Z,20.60
2017-06-11T19:11:32.457Z,20.60
2017-06-11T19:14:00.857Z,20.60
2017-06-11T19:16:28.705Z,20.60
2017-06-11T19:18:56.321Z,20.60
2017-06-11T19:21:23.969Z,20.60
2017-06-11T19:23:51.667Z,20.60
2017-06-11T19:26:19.571Z,20.60
2017-06-11T19:28:47.170Z,20.60
2017-06-11T19:31:15.167Z,20.60
2017-06-11T19:33:43.540Z,20.50
2017-06-11T19:36:11.116Z,20.50
2017-06-11T19:38:38.823Z,20.60
2017-06-11T19:41:06.416Z,20.60
2017-06-11T19:43:34.788Z,20.60
2017-06-11T19:46:02.675Z,20.50
2017-06-11T19:48:31.009Z,20.60
2017-06-11T19:50:58.883Z,20.60
2017-06-11T19:53:26.916Z,20.50
2017-06-11T19:55:54.498Z,20.50
2017-06-11T19:58:22.081Z,20.50
2017-06-11T20:00:50.028Z,20.40
2017-06-11T20:03:17.664Z,20.40
2017-06-11T20:05:45.264Z,20.30
2017-06-11T20:08:13.029Z,20.30
2017-06-11T20:10:40.657Z,20.20
2017-06-11T20:13:08.419Z,20.10
2017-06-11T20:15:36.174Z,20.10
2017-06-11T20:18:03.756Z,20.10
2017-06-11T20:20:31.332Z,20.00
2017-06-11T20:22:59.234Z,20.00
2017-06-11T20:25:26.813Z,20.00
2017-06-11T20:27:54.363Z,20.00
2017-06-11T20:30:22.105Z,19.90
2017-06-11T20:32:49.799Z,19.80
2017-06-11T20:35:18.625Z,19.80
2017-06-11T20:37:46.390Z,19.70
2017-06-11T20:40:13.979Z,19.60
2017-06-11T20:42:41.556Z,19.60
2017-06-11T20:45:10.498Z,19.60
2017-06-11T20:47:39.284Z,19.50
2017-06-11T20:50:06.874Z,19.50
2017-06-11T20:52:34.471Z,19.50
2017-06-11T20:55:02.992Z,19.50
2017-06-11T20:57:30.658Z,19.60
2017-06-11T20:59:58.483Z,19.60
2017-06-11T21:02:26.092Z,19.60
2017-06-11T21:04:53.741Z,19.60
2017-06-11T21:07:21.374Z,19.60
2017-06-11T21:09:49.180Z,19.70
2017-06-11T21:12:16.773Z,19.70
2017-06-11T21:14:46.044Z,19.60
2017-06-11T21:17:13.612Z,19.50
2017-06-11T21:19:41.956Z,19.50
2017-06-11T21:22:09.653Z,19.40
2017-06-11T21:24:37.240Z,19.40
2017-06-11T21:27:04.838Z,19.30
2017-06-11T21:29:32.579Z,19.30
2017-06-11T21:32:00.157Z,19.20
2017-06-11T21:34:27.741Z,19.10
2017-06-11T21:36:55.532Z,19.00
2017-06-11T21:39:23.101Z,19.00
2017-06-11T21:41:50.681Z,18.90
2017-06-11T21:44:18.306Z,18.90
2017-06-11T21:46:45.884Z,18.90
2017-06-11T21:49:13.455Z,18.80
2017-06-11T21:51:41.240Z,18.80
2017-06-11T21:54:08.830Z,18.70
2017-06-11T21:56:36.409Z,18.70
2017-06-11T21:59:04.789Z,18.60
2017-06-11T22:01:33.129Z,18.60
2017-06-11T22:04:00.692Z,18.60
2017-06-11T22:06:28.295Z,18.60
2017-06-11T22:08:55.894Z,18.70
2017-06-11T22:11:23.513Z,18.80
2017-06-11T22:13:51.132Z,18.70
2017-06-11T22:16:18.735Z,18.70
2017-06-11T22:18:46.351Z,18.70
2017-06-11T22:21:14.059Z,18.70
2017-06-11T22:23:42.419Z,18.60
2017-06-11T22:26:10.006Z,18.60
2017-06-11T22:28:37.678Z,18.60
2017-06-11T22:31:05.232Z,18.50
2017-06-11T22:33:32.817Z,18.50
2017-06-11T22:36:00.505Z,18.50
2017-06-11T22:38:28.104Z,18.40
2017-06-11T22:40:55.672Z,18.30
2017-06-11T22:43:23.427Z,18.30
2017-06-11T22:45:51.035Z,18.30
2017-06-11T22:48:18.619Z,18.30
2017-06-11T22:50:46.343Z,18.20
2017-06-11T22:53:13.980Z,18.20
2017-06-11T22:55:41.554Z,18.20
2017-06-11T22:58:09.280Z,18.20
2017-06-11T23:00:36.856Z,18.20
2017-06-11T23:03:04.442Z,18.20
2017-06-11T23:05:32.380Z,18.20
2017-06-11T23:08:00.727Z,18.10
2017-06-11T23:10:28.299Z,18.10
2017-06-11T23:12:55.898Z,18.10
2017-06-11T23:15:23.477Z,18.10
2017-06-11T23:17:51.052Z,18.10
2017-06-11T23:20:18.817Z,18.10
2017-06-11T23:22:46.401Z,18.10
2017-06-11T23:25:14.746Z,18.10
2017-06-11T23:27:42.362Z,18.10
2017-06-11T23:30:09.953Z,18.10
2017-06-11T23:32:37.542Z,18.10
2017-06-11T23:35:05.267Z,18.20
2017-06-11T23:37:32.843Z,18.20
2017-06-11T23:40:00.411Z,18.30
2017-06-11T23:42:28.100Z,18.30
2017-06-11T23:44:55.679Z,18.40
2017-06-11T23:47:23.265Z,18.50
2017-06-11T23:49:51.033Z,18.40
2017-06-11T23:52:18.614Z,18.50
2017-06-11T23:54:46.225Z,18.50
2017-06-11T23:57:13.989Z,18.60
2017-06-11T23:59:41.575Z,18.60
